sensor_id;sensor_type;location;lat;lon;timestamp;P1;durP1;ratioP1;P2;durP2;ratioP2
6828;SDS011;17930;48.592;8.868;2022-09-01T00:01:15;33.30;;;21.93;;
6828;SDS011;17930;48.592;8.868;2022-09-01T00:03:46;35.63;;;22.40;;
6828;SDS011;17930;48.592;8.868;2022-09-01T00:06:17;33.17;;;23.47;;
6828;SDS011;17930;48.592;8.868;2022-09-01T00:08:46;29.13;;;22.57;;
6828;SDS011;17930;48.592;8.868;2022-09-01T00:11:13;29.90;;;21.97;;
6828;SDS011;17930;48.592;8.868;2022-09-01T00:13:40;34.73;;;23.77;;
6828;SDS011;17930;48.592;8.868;2022-09-01T00:16:07;37.30;;;24.63;;
6828;SDS011;17930;48.592;8.868;2022-09-01T00:18:38;35.93;;;23.37;;
6828;SDS011;17930;48.592;8.868;2022-09-01T00:21:08;40.37;;;23.53;;
6828;SDS011;17930;48.592;8.868;2022-09-01T00:23:35;31.90;;;23.73;;
6828;SDS011;17930;48.592;8.868;2022-09-01T00:26:02;36.47;;;23.17;;
6828;SDS011;17930;48.592;8.868;2022-09-01T00:28:31;38.27;;;25.13;;
6828;SDS011;17930;48.592;8.868;2022-09-01T00:30:58;37.47;;;24.60;;
6828;SDS011;17930;48.592;8.868;2022-09-01T00:33:25;37.83;;;24.97;;
6828;SDS011;17930;48.592;8.868;2022-09-01T00:35:52;40.53;;;25.37;;
6828;SDS011;17930;48.592;8.868;2022-09-01T00:38:20;42.97;;;25.70;;
6828;SDS011;17930;48.592;8.868;2022-09-01T00:40:47;43.63;;;26.30;;
6828;SDS011;17930;48.592;8.868;2022-09-01T00:43:14;44.67;;;26.70;;
6828;SDS011;17930;48.592;8.868;2022-09-01T00:45:46;37.70;;;24.73;;
6828;SDS011;17930;48.592;8.868;2022-09-01T00:48:13;38.53;;;24.17;;
6828;SDS011;17930;48.592;8.868;2022-09-01T00:50:40;38.57;;;25.53;;
6828;SDS011;17930;48.592;8.868;2022-09-01T00:53:07;38.03;;;24.67;;
6828;SDS011;17930;48.592;8.868;2022-09-01T00:55:36;38.50;;;24.33;;
6828;SDS011;17930;48.592;8.868;2022-09-01T00:58:04;37.97;;;23.93;;
6828;SDS011;17930;48.592;8.868;2022-09-01T01:00:33;30.83;;;22.37;;
6828;SDS011;17930;48.592;8.868;2022-09-01T01:03:05;38.90;;;22.80;;
6828;SDS011;17930;48.592;8.868;2022-09-01T01:05:35;33.70;;;23.10;;
6828;SDS011;17930;48.592;8.868;2022-09-01T01:08:04;35.37;;;23.17;;
6828;SDS011;17930;48.592;8.868;2022-09-01T01:10:34;38.63;;;23.37;;
6828;SDS011;17930;48.592;8.868;2022-09-01T01:13:05;40.90;;;23.13;;
6828;SDS011;17930;48.592;8.868;2022-09-01T01:15:33;37.97;;;24.10;;
6828;SDS011;17930;48.592;8.868;2022-09-01T01:18:00;36.50;;;23.37;;
6828;SDS011;17930;48.592;8.868;2022-09-01T01:20:27;37.63;;;23.10;;
6828;SDS011;17930;48.592;8.868;2022-09-01T01:23:19;56.77;;;27.47;;
6828;SDS011;17930;48.592;8.868;2022-09-01T01:25:52;61.77;;;29.37;;
6828;SDS011;17930;48.592;8.868;2022-09-01T01:28:23;69.00;;;29.37;;
6828;SDS011;17930;48.592;8.868;2022-09-01T01:30:54;63.70;;;32.57;;
6828;SDS011;17930;48.592;8.868;2022-09-01T01:33:24;71.57;;;30.53;;
6828;SDS011;17930;48.592;8.868;2022-09-01T01:35:54;65.43;;;33.17;;
6828;SDS011;17930;48.592;8.868;2022-09-01T01:38:22;62.53;;;29.70;;
6828;SDS011;17930;48.592;8.868;2022-09-01T01:40:49;63.00;;;31.03;;
6828;SDS011;17930;48.592;8.868;2022-09-01T01:43:19;77.93;;;32.73;;
6828;SDS011;17930;48.592;8.868;2022-09-01T01:45:47;77.97;;;32.33;;
6828;SDS011;17930;48.592;8.868;2022-09-01T01:48:16;68.47;;;30.90;;
6828;SDS011;17930;48.592;8.868;2022-09-01T01:50:48;83.40;;;34.43;;
6828;SDS011;17930;48.592;8.868;2022-09-01T01:53:16;77.17;;;35.07;;
6828;SDS011;17930;48.592;8.868;2022-09-01T01:55:44;88.67;;;34.30;;
6828;SDS011;17930;48.592;8.868;2022-09-01T01:58:12;80.83;;;34.87;;
6828;SDS011;17930;48.592;8.868;2022-09-01T02:00:40;88.20;;;35.23;;
6828;SDS011;17930;48.592;8.868;2022-09-01T02:03:08;90.30;;;36.70;;
6828;SDS011;17930;48.592;8.868;2022-09-01T02:05:37;95.27;;;38.40;;
6828;SDS011;17930;48.592;8.868;2022-09-01T02:08:05;68.60;;;35.00;;
6828;SDS011;17930;48.592;8.868;2022-09-01T02:10:34;78.13;;;34.23;;
6828;SDS011;17930;48.592;8.868;2022-09-01T02:13:05;64.07;;;34.17;;
6828;SDS011;17930;48.592;8.868;2022-09-01T02:15:32;72.77;;;35.90;;
6828;SDS011;17930;48.592;8.868;2022-09-01T02:18:05;89.43;;;38.53;;
6828;SDS011;17930;48.592;8.868;2022-09-01T02:20:32;78.87;;;33.90;;
6828;SDS011;17930;48.592;8.868;2022-09-01T02:22:59;89.23;;;35.07;;
6828;SDS011;17930;48.592;8.868;2022-09-01T02:25:28;67.90;;;34.20;;
6828;SDS011;17930;48.592;8.868;2022-09-01T02:27:56;55.77;;;31.00;;
6828;SDS011;17930;48.592;8.868;2022-09-01T02:30:24;54.70;;;30.03;;
6828;SDS011;17930;48.592;8.868;2022-09-01T02:32:51;58.70;;;32.10;;
6828;SDS011;17930;48.592;8.868;2022-09-01T02:35:19;46.70;;;29.50;;
6828;SDS011;17930;48.592;8.868;2022-09-01T02:37:47;49.17;;;28.80;;
6828;SDS011;17930;48.592;8.868;2022-09-01T02:40:20;46.53;;;28.40;;
6828;SDS011;17930;48.592;8.868;2022-09-01T02:42:46;39.67;;;24.73;;
6828;SDS011;17930;48.592;8.868;2022-09-01T02:45:17;40.87;;;25.83;;
6828;SDS011;17930;48.592;8.868;2022-09-01T02:47:44;37.97;;;23.97;;
6828;SDS011;17930;48.592;8.868;2022-09-01T02:50:13;38.53;;;24.17;;
6828;SDS011;17930;48.592;8.868;2022-09-01T02:52:43;34.70;;;21.77;;
6828;SDS011;17930;48.592;8.868;2022-09-01T02:55:10;39.10;;;24.10;;
6828;SDS011;17930;48.592;8.868;2022-09-01T02:57:38;39.90;;;23.27;;
6828;SDS011;17930;48.592;8.868;2022-09-01T03:00:05;42.67;;;26.33;;
6828;SDS011;17930;48.592;8.868;2022-09-01T03:02:46;51.17;;;29.20;;
6828;SDS011;17930;48.592;8.868;2022-09-01T03:05:16;51.37;;;28.80;;
6828;SDS011;17930;48.592;8.868;2022-09-01T03:07:44;52.30;;;29.83;;
6828;SDS011;17930;48.592;8.868;2022-09-01T03:10:11;49.67;;;28.90;;
6828;SDS011;17930;48.592;8.868;2022-09-01T03:12:38;53.27;;;30.40;;
6828;SDS011;17930;48.592;8.868;2022-09-01T03:15:05;68.90;;;33.00;;
6828;SDS011;17930;48.592;8.868;2022-09-01T03:17:32;95.93;;;35.90;;
6828;SDS011;17930;48.592;8.868;2022-09-01T03:19:59;68.43;;;33.93;;
6828;SDS011;17930;48.592;8.868;2022-09-01T03:22:25;119.47;;;38.83;;
6828;SDS011;17930;48.592;8.868;2022-09-01T03:24:55;76.90;;;35.33;;
6828;SDS011;17930;48.592;8.868;2022-09-01T03:27:21;97.03;;;37.60;;
6828;SDS011;17930;48.592;8.868;2022-09-01T03:29:48;80.13;;;36.43;;
6828;SDS011;17930;48.592;8.868;2022-09-01T03:32:15;81.17;;;35.43;;
6828;SDS011;17930;48.592;8.868;2022-09-01T03:34:43;97.77;;;36.87;;
6828;SDS011;17930;48.592;8.868;2022-09-01T03:37:09;122.30;;;41.70;;
6828;SDS011;17930;48.592;8.868;2022-09-01T03:39:36;76.33;;;36.97;;
6828;SDS011;17930;48.592;8.868;2022-09-01T03:42:05;75.43;;;36.10;;
6828;SDS011;17930;48.592;8.868;2022-09-01T03:44:35;88.33;;;40.33;;
6828;SDS011;17930;48.592;8.868;2022-09-01T03:47:04;80.07;;;38.10;;
6828;SDS011;17930;48.592;8.868;2022-09-01T03:49:34;100.07;;;41.97;;
6828;SDS011;17930;48.592;8.868;2022-09-01T03:52:03;80.37;;;37.73;;
6828;SDS011;17930;48.592;8.868;2022-09-01T03:54:33;87.37;;;40.70;;
6828;SDS011;17930;48.592;8.868;2022-09-01T03:56:59;76.70;;;38.47;;
6828;SDS011;17930;48.592;8.868;2022-09-01T03:59:27;82.70;;;39.93;;
6828;SDS011;17930;48.592;8.868;2022-09-01T04:01:54;83.50;;;39.23;;
6828;SDS011;17930;48.592;8.868;2022-09-01T04:04:22;71.00;;;37.10;;
6828;SDS011;17930;48.592;8.868;2022-09-01T04:06:50;79.03;;;39.43;;
6828;SDS011;17930;48.592;8.868;2022-09-01T04:09:16;75.83;;;37.67;;
6828;SDS011;17930;48.592;8.868;2022-09-01T04:11:45;90.00;;;44.10;;
6828;SDS011;17930;48.592;8.868;2022-09-01T04:14:12;95.33;;;40.80;;
6828;SDS011;17930;48.592;8.868;2022-09-01T04:16:41;91.70;;;39.30;;
6828;SDS011;17930;48.592;8.868;2022-09-01T04:19:26;112.40;;;43.70;;
6828;SDS011;17930;48.592;8.868;2022-09-01T04:21:55;84.23;;;41.20;;
6828;SDS011;17930;48.592;8.868;2022-09-01T04:24:25;98.20;;;40.43;;
6828;SDS011;17930;48.592;8.868;2022-09-01T04:26:53;94.97;;;41.93;;
6828;SDS011;17930;48.592;8.868;2022-09-01T04:29:23;100.07;;;42.33;;
6828;SDS011;17930;48.592;8.868;2022-09-01T04:31:53;75.43;;;39.17;;
6828;SDS011;17930;48.592;8.868;2022-09-01T04:34:21;74.50;;;36.97;;
6828;SDS011;17930;48.592;8.868;2022-09-01T04:36:49;86.50;;;38.57;;
6828;SDS011;17930;48.592;8.868;2022-09-01T04:39:21;71.37;;;36.53;;
6828;SDS011;17930;48.592;8.868;2022-09-01T04:41:48;67.83;;;36.43;;
6828;SDS011;17930;48.592;8.868;2022-09-01T04:44:16;77.23;;;37.43;;
6828;SDS011;17930;48.592;8.868;2022-09-01T04:46:44;68.60;;;37.67;;
6828;SDS011;17930;48.592;8.868;2022-09-01T04:49:14;62.60;;;35.77;;
6828;SDS011;17930;48.592;8.868;2022-09-01T04:51:44;66.67;;;35.07;;
6828;SDS011;17930;48.592;8.868;2022-09-01T04:54:12;69.83;;;35.90;;
6828;SDS011;17930;48.592;8.868;2022-09-01T04:56:40;63.40;;;34.73;;
6828;SDS011;17930;48.592;8.868;2022-09-01T04:59:10;62.30;;;35.30;;
6828;SDS011;17930;48.592;8.868;2022-09-01T05:01:38;62.83;;;34.63;;
6828;SDS011;17930;48.592;8.868;2022-09-01T05:04:09;62.13;;;34.70;;
6828;SDS011;17930;48.592;8.868;2022-09-01T05:06:40;61.83;;;34.13;;
6828;SDS011;17930;48.592;8.868;2022-09-01T05:09:08;60.83;;;35.07;;
6828;SDS011;17930;48.592;8.868;2022-09-01T05:11:36;54.13;;;32.97;;
6828;SDS011;17930;48.592;8.868;2022-09-01T05:14:04;55.00;;;32.53;;
6828;SDS011;17930;48.592;8.868;2022-09-01T05:16:31;50.67;;;32.70;;
6828;SDS011;17930;48.592;8.868;2022-09-01T05:19:00;52.77;;;31.70;;
6828;SDS011;17930;48.592;8.868;2022-09-01T05:21:27;49.60;;;31.37;;
6828;SDS011;17930;48.592;8.868;2022-09-01T05:23:56;50.97;;;30.97;;
6828;SDS011;17930;48.592;8.868;2022-09-01T05:26:25;46.77;;;29.60;;
6828;SDS011;17930;48.592;8.868;2022-09-01T05:28:56;45.53;;;29.37;;
6828;SDS011;17930;48.592;8.868;2022-09-01T05:34:17;38.97;;;28.27;;
6828;SDS011;17930;48.592;8.868;2022-09-01T05:36:52;40.77;;;28.17;;
6828;SDS011;17930;48.592;8.868;2022-09-01T05:39:23;41.93;;;26.93;;
6828;SDS011;17930;48.592;8.868;2022-09-01T05:41:51;37.27;;;26.43;;
6828;SDS011;17930;48.592;8.868;2022-09-01T05:44:19;34.23;;;24.40;;
6828;SDS011;17930;48.592;8.868;2022-09-01T05:46:47;37.23;;;25.90;;
6828;SDS011;17930;48.592;8.868;2022-09-01T05:49:14;38.90;;;25.60;;
6828;SDS011;17930;48.592;8.868;2022-09-01T05:51:44;35.43;;;25.60;;
6828;SDS011;17930;48.592;8.868;2022-09-01T05:54:14;34.30;;;25.37;;
6828;SDS011;17930;48.592;8.868;2022-09-01T05:56:44;36.90;;;25.87;;
6828;SDS011;17930;48.592;8.868;2022-09-01T05:59:11;34.10;;;24.80;;
6828;SDS011;17930;48.592;8.868;2022-09-01T06:01:38;33.53;;;25.03;;
6828;SDS011;17930;48.592;8.868;2022-09-01T06:04:06;30.53;;;23.67;;
6828;SDS011;17930;48.592;8.868;2022-09-01T06:06:34;32.03;;;23.97;;
6828;SDS011;17930;48.592;8.868;2022-09-01T06:09:03;30.70;;;22.70;;
6828;SDS011;17930;48.592;8.868;2022-09-01T06:11:30;29.90;;;23.30;;
6828;SDS011;17930;48.592;8.868;2022-09-01T06:13:58;29.00;;;21.03;;
6828;SDS011;17930;48.592;8.868;2022-09-01T06:16:25;28.70;;;21.73;;
6828;SDS011;17930;48.592;8.868;2022-09-01T06:18:53;28.13;;;21.07;;
6828;SDS011;17930;48.592;8.868;2022-09-01T06:21:21;26.43;;;20.43;;
6828;SDS011;17930;48.592;8.868;2022-09-01T06:23:49;26.80;;;21.17;;
6828;SDS011;17930;48.592;8.868;2022-09-01T06:26:18;28.93;;;22.57;;
6828;SDS011;17930;48.592;8.868;2022-09-01T06:28:50;26.13;;;20.97;;
6828;SDS011;17930;48.592;8.868;2022-09-01T06:31:20;24.30;;;19.47;;
6828;SDS011;17930;48.592;8.868;2022-09-01T06:33:48;21.70;;;18.17;;
6828;SDS011;17930;48.592;8.868;2022-09-01T06:36:17;19.60;;;17.50;;
6828;SDS011;17930;48.592;8.868;2022-09-01T06:38:46;23.40;;;16.83;;
6828;SDS011;17930;48.592;8.868;2022-09-01T06:41:14;19.47;;;15.87;;
6828;SDS011;17930;48.592;8.868;2022-09-01T06:43:44;17.50;;;15.60;;
6828;SDS011;17930;48.592;8.868;2022-09-01T06:46:11;15.70;;;13.97;;
6828;SDS011;17930;48.592;8.868;2022-09-01T06:48:39;13.37;;;11.93;;
6828;SDS011;17930;48.592;8.868;2022-09-01T06:51:11;13.67;;;11.73;;
6828;SDS011;17930;48.592;8.868;2022-09-01T06:53:39;12.50;;;11.20;;
6828;SDS011;17930;48.592;8.868;2022-09-01T06:56:07;12.33;;;10.33;;
6828;SDS011;17930;48.592;8.868;2022-09-01T06:58:38;11.77;;;10.57;;
6828;SDS011;17930;48.592;8.868;2022-09-01T07:01:06;12.27;;;11.07;;
6828;SDS011;17930;48.592;8.868;2022-09-01T07:03:41;11.97;;;10.73;;
6828;SDS011;17930;48.592;8.868;2022-09-01T07:06:09;11.37;;;10.17;;
6828;SDS011;17930;48.592;8.868;2022-09-01T07:08:37;10.57;;;9.47;;
6828;SDS011;17930;48.592;8.868;2022-09-01T07:11:05;10.53;;;9.43;;
6828;SDS011;17930;48.592;8.868;2022-09-01T07:13:34;11.87;;;10.03;;
6828;SDS011;17930;48.592;8.868;2022-09-01T07:16:02;11.83;;;10.63;;
6828;SDS011;17930;48.592;8.868;2022-09-01T07:18:31;14.17;;;10.93;;
6828;SDS011;17930;48.592;8.868;2022-09-01T07:20:59;12.70;;;11.40;;
6828;SDS011;17930;48.592;8.868;2022-09-01T07:23:31;12.87;;;11.57;;
6828;SDS011;17930;48.592;8.868;2022-09-01T07:25:58;13.77;;;10.93;;
6828;SDS011;17930;48.592;8.868;2022-09-01T07:28:27;11.03;;;10.03;;
6828;SDS011;17930;48.592;8.868;2022-09-01T07:30:56;11.40;;;10.20;;
6828;SDS011;17930;48.592;8.868;2022-09-01T07:33:24;13.37;;;10.77;;
6828;SDS011;17930;48.592;8.868;2022-09-01T07:35:54;11.37;;;10.27;;
6828;SDS011;17930;48.592;8.868;2022-09-01T07:38:23;13.27;;;10.47;;
6828;SDS011;17930;48.592;8.868;2022-09-01T07:40:52;13.00;;;10.10;;
6828;SDS011;17930;48.592;8.868;2022-09-01T07:43:19;12.60;;;10.40;;
6828;SDS011;17930;48.592;8.868;2022-09-01T07:45:49;12.10;;;10.90;;
6828;SDS011;17930;48.592;8.868;2022-09-01T07:48:20;11.63;;;10.03;;
6828;SDS011;17930;48.592;8.868;2022-09-01T07:50:49;12.00;;;9.47;;
6828;SDS011;17930;48.592;8.868;2022-09-01T07:53:18;11.43;;;10.23;;
6828;SDS011;17930;48.592;8.868;2022-09-01T07:55:48;12.07;;;10.37;;
6828;SDS011;17930;48.592;8.868;2022-09-01T07:58:17;10.07;;;9.07;;
6828;SDS011;17930;48.592;8.868;2022-09-01T08:00:44;10.53;;;9.43;;
6828;SDS011;17930;48.592;8.868;2022-09-01T08:03:11;11.73;;;9.47;;
6828;SDS011;17930;48.592;8.868;2022-09-01T08:05:39;10.43;;;9.43;;
6828;SDS011;17930;48.592;8.868;2022-09-01T08:08:05;12.10;;;9.33;;
6828;SDS011;17930;48.592;8.868;2022-09-01T08:10:32;9.27;;;8.40;;
6828;SDS011;17930;48.592;8.868;2022-09-01T08:13:00;9.83;;;8.27;;
6828;SDS011;17930;48.592;8.868;2022-09-01T08:15:27;8.70;;;7.90;;
6828;SDS011;17930;48.592;8.868;2022-09-01T08:17:54;9.60;;;8.67;;
6828;SDS011;17930;48.592;8.868;2022-09-01T08:20:21;8.47;;;6.93;;
6828;SDS011;17930;48.592;8.868;2022-09-01T08:22:48;7.67;;;6.93;;
6828;SDS011;17930;48.592;8.868;2022-09-01T08:25:14;8.20;;;6.83;;
6828;SDS011;17930;48.592;8.868;2022-09-01T08:27:41;8.60;;;7.30;;
6828;SDS011;17930;48.592;8.868;2022-09-01T08:30:10;6.20;;;5.60;;
6828;SDS011;17930;48.592;8.868;2022-09-01T08:32:38;7.57;;;6.80;;
6828;SDS011;17930;48.592;8.868;2022-09-01T08:35:07;6.37;;;5.77;;
6828;SDS011;17930;48.592;8.868;2022-09-01T08:37:37;8.03;;;5.03;;
6828;SDS011;17930;48.592;8.868;2022-09-01T08:40:05;6.30;;;5.70;;
6828;SDS011;17930;48.592;8.868;2022-09-01T08:42:38;5.30;;;4.80;;
6828;SDS011;17930;48.592;8.868;2022-09-01T08:45:18;5.37;;;4.87;;
6828;SDS011;17930;48.592;8.868;2022-09-01T08:47:47;5.73;;;4.10;;
6828;SDS011;17930;48.592;8.868;2022-09-01T08:50:18;5.23;;;3.90;;
6828;SDS011;17930;48.592;8.868;2022-09-01T08:52:46;4.30;;;3.90;;
6828;SDS011;17930;48.592;8.868;2022-09-01T08:55:20;5.50;;;4.37;;
6828;SDS011;17930;48.592;8.868;2022-09-01T08:57:51;4.10;;;3.70;;
6828;SDS011;17930;48.592;8.868;2022-09-01T09:00:23;4.43;;;3.90;;
6828;SDS011;17930;48.592;8.868;2022-09-01T09:02:59;4.50;;;4.10;;
6828;SDS011;17930;48.592;8.868;2022-09-01T09:05:42;4.63;;;3.97;;
6828;SDS011;17930;48.592;8.868;2022-09-01T09:08:33;4.47;;;4.07;;
6828;SDS011;17930;48.592;8.868;2022-09-01T09:11:18;8.07;;;4.13;;
6828;SDS011;17930;48.592;8.868;2022-09-01T09:14:04;5.57;;;4.10;;
6828;SDS011;17930;48.592;8.868;2022-09-01T09:16:41;6.37;;;4.23;;
6828;SDS011;17930;48.592;8.868;2022-09-01T09:19:14;4.10;;;3.80;;
6828;SDS011;17930;48.592;8.868;2022-09-01T09:21:47;4.00;;;3.70;;
6828;SDS011;17930;48.592;8.868;2022-09-01T09:24:20;3.87;;;3.43;;
6828;SDS011;17930;48.592;8.868;2022-09-01T09:26:52;4.27;;;3.80;;
6828;SDS011;17930;48.592;8.868;2022-09-01T09:29:21;5.67;;;4.40;;
6828;SDS011;17930;48.592;8.868;2022-09-01T09:31:49;5.13;;;4.13;;
6828;SDS011;17930;48.592;8.868;2022-09-01T09:34:29;5.10;;;4.27;;
6828;SDS011;17930;48.592;8.868;2022-09-01T09:37:15;6.37;;;4.70;;
6828;SDS011;17930;48.592;8.868;2022-09-01T09:39:45;5.13;;;4.13;;
6828;SDS011;17930;48.592;8.868;2022-09-01T09:42:28;5.50;;;4.43;;
6828;SDS011;17930;48.592;8.868;2022-09-01T09:44:55;4.30;;;3.90;;
6828;SDS011;17930;48.592;8.868;2022-09-01T09:47:34;4.23;;;3.70;;
6828;SDS011;17930;48.592;8.868;2022-09-01T09:50:10;4.63;;;3.23;;
6828;SDS011;17930;48.592;8.868;2022-09-01T09:52:46;3.97;;;3.57;;
6828;SDS011;17930;48.592;8.868;2022-09-01T09:55:19;4.10;;;3.50;;
6828;SDS011;17930;48.592;8.868;2022-09-01T09:57:48;3.13;;;2.83;;
6828;SDS011;17930;48.592;8.868;2022-09-01T10:00:18;3.40;;;2.97;;
6828;SDS011;17930;48.592;8.868;2022-09-01T10:02:51;3.67;;;3.03;;
6828;SDS011;17930;48.592;8.868;2022-09-01T10:05:22;3.70;;;3.30;;
6828;SDS011;17930;48.592;8.868;2022-09-01T10:07:52;4.70;;;3.73;;
6828;SDS011;17930;48.592;8.868;2022-09-01T10:10:27;4.93;;;4.50;;
6828;SDS011;17930;48.592;8.868;2022-09-01T10:12:57;4.60;;;3.63;;
6828;SDS011;17930;48.592;8.868;2022-09-01T10:15:25;3.83;;;3.40;;
6828;SDS011;17930;48.592;8.868;2022-09-01T10:17:57;6.60;;;3.43;;
6828;SDS011;17930;48.592;8.868;2022-09-01T10:20:27;4.50;;;3.70;;
6828;SDS011;17930;48.592;8.868;2022-09-01T10:22:54;4.40;;;3.03;;
6828;SDS011;17930;48.592;8.868;2022-09-01T10:25:22;3.63;;;3.20;;
6828;SDS011;17930;48.592;8.868;2022-09-01T10:27:51;3.80;;;3.10;;
6828;SDS011;17930;48.592;8.868;2022-09-01T10:30:22;6.27;;;3.27;;
6828;SDS011;17930;48.592;8.868;2022-09-01T10:32:50;4.60;;;3.00;;
6828;SDS011;17930;48.592;8.868;2022-09-01T10:35:22;3.57;;;3.27;;
6828;SDS011;17930;48.592;8.868;2022-09-01T10:37:51;3.87;;;3.37;;
6828;SDS011;17930;48.592;8.868;2022-09-01T10:40:33;6.37;;;3.13;;
6828;SDS011;17930;48.592;8.868;2022-09-01T10:45:59;2.90;;;2.70;;
6828;SDS011;17930;48.592;8.868;2022-09-01T10:48:27;3.53;;;3.00;;
6828;SDS011;17930;48.592;8.868;2022-09-01T10:54:09;3.20;;;2.90;;
6828;SDS011;17930;48.592;8.868;2022-09-01T10:57:19;3.03;;;2.73;;
6828;SDS011;17930;48.592;8.868;2022-09-01T11:03:34;2.47;;;2.27;;
6828;SDS011;17930;48.592;8.868;2022-09-01T11:06:04;3.50;;;3.20;;
6828;SDS011;17930;48.592;8.868;2022-09-01T11:08:41;3.03;;;2.63;;
6828;SDS011;17930;48.592;8.868;2022-09-01T11:11:14;3.33;;;2.90;;
6828;SDS011;17930;48.592;8.868;2022-09-01T11:13:52;3.10;;;2.80;;
6828;SDS011;17930;48.592;8.868;2022-09-01T11:16:27;3.23;;;2.80;;
6828;SDS011;17930;48.592;8.868;2022-09-01T11:21:46;2.90;;;2.53;;
6828;SDS011;17930;48.592;8.868;2022-09-01T11:30:33;4.33;;;3.00;;
6828;SDS011;17930;48.592;8.868;2022-09-01T11:35:37;3.10;;;2.63;;
6828;SDS011;17930;48.592;8.868;2022-09-01T11:38:04;2.67;;;2.33;;
6828;SDS011;17930;48.592;8.868;2022-09-01T11:40:35;2.50;;;2.30;;
6828;SDS011;17930;48.592;8.868;2022-09-01T11:43:03;2.63;;;1.90;;
6828;SDS011;17930;48.592;8.868;2022-09-01T11:45:35;3.13;;;1.93;;
6828;SDS011;17930;48.592;8.868;2022-09-01T11:48:09;3.10;;;2.30;;
6828;SDS011;17930;48.592;8.868;2022-09-01T11:50:41;2.30;;;2.10;;
6828;SDS011;17930;48.592;8.868;2022-09-01T11:53:09;3.87;;;2.70;;
6828;SDS011;17930;48.592;8.868;2022-09-01T11:55:41;3.10;;;2.17;;
6828;SDS011;17930;48.592;8.868;2022-09-01T11:58:11;2.57;;;2.37;;
6828;SDS011;17930;48.592;8.868;2022-09-01T12:00:40;3.00;;;2.40;;
6828;SDS011;17930;48.592;8.868;2022-09-01T12:03:18;2.60;;;2.40;;
6828;SDS011;17930;48.592;8.868;2022-09-01T12:05:47;2.23;;;1.80;;
6828;SDS011;17930;48.592;8.868;2022-09-01T12:08:18;2.23;;;2.00;;
6828;SDS011;17930;48.592;8.868;2022-09-01T12:10:47;2.57;;;2.10;;
6828;SDS011;17930;48.592;8.868;2022-09-01T12:13:16;2.20;;;2.00;;
6828;SDS011;17930;48.592;8.868;2022-09-01T12:15:51;2.37;;;2.00;;
6828;SDS011;17930;48.592;8.868;2022-09-01T12:18:20;1.90;;;1.80;;
6828;SDS011;17930;48.592;8.868;2022-09-01T12:20:51;2.43;;;2.23;;
6828;SDS011;17930;48.592;8.868;2022-09-01T12:23:22;2.63;;;2.20;;
6828;SDS011;17930;48.592;8.868;2022-09-01T12:25:52;2.40;;;2.00;;
6828;SDS011;17930;48.592;8.868;2022-09-01T12:28:21;2.27;;;2.07;;
6828;SDS011;17930;48.592;8.868;2022-09-01T12:30:49;1.73;;;1.63;;
6828;SDS011;17930;48.592;8.868;2022-09-01T12:33:17;2.00;;;1.90;;
6828;SDS011;17930;48.592;8.868;2022-09-01T12:35:45;2.40;;;1.77;;
6828;SDS011;17930;48.592;8.868;2022-09-01T12:40:58;1.97;;;1.83;;
6828;SDS011;17930;48.592;8.868;2022-09-01T12:43:26;2.20;;;2.00;;
6828;SDS011;17930;48.592;8.868;2022-09-01T12:45:55;2.30;;;2.10;;
6828;SDS011;17930;48.592;8.868;2022-09-01T12:48:24;2.57;;;1.80;;
6828;SDS011;17930;48.592;8.868;2022-09-01T12:50:54;4.20;;;2.10;;
6828;SDS011;17930;48.592;8.868;2022-09-01T12:53:27;2.87;;;2.07;;
6828;SDS011;17930;48.592;8.868;2022-09-01T12:55:59;3.20;;;2.00;;
6828;SDS011;17930;48.592;8.868;2022-09-01T12:58:43;1.90;;;1.70;;
6828;SDS011;17930;48.592;8.868;2022-09-01T13:01:25;3.03;;;1.77;;
6828;SDS011;17930;48.592;8.868;2022-09-01T13:04:11;2.83;;;1.90;;
6828;SDS011;17930;48.592;8.868;2022-09-01T13:06:49;1.93;;;1.80;;
6828;SDS011;17930;48.592;8.868;2022-09-01T13:09:16;1.93;;;1.53;;
6828;SDS011;17930;48.592;8.868;2022-09-01T13:11:45;2.03;;;1.83;;
6828;SDS011;17930;48.592;8.868;2022-09-01T13:14:12;1.87;;;1.70;;
6828;SDS011;17930;48.592;8.868;2022-09-01T13:16:39;1.77;;;1.67;;
6828;SDS011;17930;48.592;8.868;2022-09-01T13:19:06;3.17;;;1.60;;
6828;SDS011;17930;48.592;8.868;2022-09-01T13:21:33;1.77;;;1.67;;
6828;SDS011;17930;48.592;8.868;2022-09-01T13:24:01;2.20;;;1.70;;
6828;SDS011;17930;48.592;8.868;2022-09-01T13:26:29;2.97;;;1.63;;
6828;SDS011;17930;48.592;8.868;2022-09-01T13:28:58;3.30;;;2.03;;
6828;SDS011;17930;48.592;8.868;2022-09-01T13:31:27;2.00;;;1.80;;
6828;SDS011;17930;48.592;8.868;2022-09-01T13:33:55;2.13;;;1.80;;
6828;SDS011;17930;48.592;8.868;2022-09-01T13:36:23;2.33;;;1.70;;
6828;SDS011;17930;48.592;8.868;2022-09-01T13:38:50;2.50;;;1.80;;
6828;SDS011;17930;48.592;8.868;2022-09-01T13:41:17;2.13;;;1.70;;
6828;SDS011;17930;48.592;8.868;2022-09-01T13:43:43;1.80;;;1.67;;
6828;SDS011;17930;48.592;8.868;2022-09-01T13:46:13;2.57;;;2.00;;
6828;SDS011;17930;48.592;8.868;2022-09-01T13:48:39;1.47;;;1.33;;
6828;SDS011;17930;48.592;8.868;2022-09-01T13:51:06;2.13;;;1.87;;
6828;SDS011;17930;48.592;8.868;2022-09-01T13:53:34;2.03;;;1.93;;
6828;SDS011;17930;48.592;8.868;2022-09-01T13:56:01;2.30;;;1.67;;
6828;SDS011;17930;48.592;8.868;2022-09-01T13:58:28;3.43;;;1.60;;
6828;SDS011;17930;48.592;8.868;2022-09-01T14:00:54;1.70;;;1.60;;
6828;SDS011;17930;48.592;8.868;2022-09-01T14:03:25;1.80;;;1.60;;
6828;SDS011;17930;48.592;8.868;2022-09-01T14:05:52;3.50;;;1.90;;
6828;SDS011;17930;48.592;8.868;2022-09-01T14:08:19;3.70;;;1.87;;
6828;SDS011;17930;48.592;8.868;2022-09-01T14:10:49;2.30;;;2.00;;
6828;SDS011;17930;48.592;8.868;2022-09-01T14:13:17;2.00;;;1.80;;
6828;SDS011;17930;48.592;8.868;2022-09-01T14:15:45;2.27;;;2.07;;
6828;SDS011;17930;48.592;8.868;2022-09-01T14:18:12;2.20;;;2.00;;
6828;SDS011;17930;48.592;8.868;2022-09-01T14:20:43;1.70;;;1.60;;
6828;SDS011;17930;48.592;8.868;2022-09-01T14:23:11;2.03;;;1.77;;
6828;SDS011;17930;48.592;8.868;2022-09-01T14:25:43;2.30;;;2.10;;
6828;SDS011;17930;48.592;8.868;2022-09-01T14:28:12;3.27;;;2.23;;
6828;SDS011;17930;48.592;8.868;2022-09-01T14:30:41;1.90;;;1.80;;
6828;SDS011;17930;48.592;8.868;2022-09-01T14:33:08;2.17;;;2.00;;
6828;SDS011;17930;48.592;8.868;2022-09-01T14:35:37;3.13;;;1.77;;
6828;SDS011;17930;48.592;8.868;2022-09-01T14:38:07;2.30;;;2.10;;
6828;SDS011;17930;48.592;8.868;2022-09-01T14:40:36;2.43;;;2.23;;
6828;SDS011;17930;48.592;8.868;2022-09-01T14:43:04;1.90;;;1.80;;
6828;SDS011;17930;48.592;8.868;2022-09-01T14:45:33;1.93;;;1.80;;
6828;SDS011;17930;48.592;8.868;2022-09-01T14:48:02;3.90;;;2.13;;
6828;SDS011;17930;48.592;8.868;2022-09-01T14:50:30;2.90;;;1.63;;
6828;SDS011;17930;48.592;8.868;2022-09-01T14:52:58;1.97;;;1.80;;
6828;SDS011;17930;48.592;8.868;2022-09-01T14:55:29;1.70;;;1.60;;
6828;SDS011;17930;48.592;8.868;2022-09-01T14:57:57;1.80;;;1.70;;
6828;SDS011;17930;48.592;8.868;2022-09-01T15:00:29;1.70;;;1.60;;
6828;SDS011;17930;48.592;8.868;2022-09-01T15:03:00;1.97;;;1.80;;
6828;SDS011;17930;48.592;8.868;2022-09-01T15:05:30;2.20;;;1.77;;
6828;SDS011;17930;48.592;8.868;2022-09-01T15:07:56;2.50;;;2.20;;
6828;SDS011;17930;48.592;8.868;2022-09-01T15:10:24;2.43;;;1.87;;
6828;SDS011;17930;48.592;8.868;2022-09-01T15:12:58;2.43;;;2.00;;
6828;SDS011;17930;48.592;8.868;2022-09-01T15:15:26;1.93;;;1.80;;
6828;SDS011;17930;48.592;8.868;2022-09-01T15:17:55;2.17;;;1.90;;
6828;SDS011;17930;48.592;8.868;2022-09-01T15:20:22;2.10;;;1.60;;
6828;SDS011;17930;48.592;8.868;2022-09-01T15:23:07;2.10;;;1.90;;
6828;SDS011;17930;48.592;8.868;2022-09-01T15:25:34;3.10;;;2.00;;
6828;SDS011;17930;48.592;8.868;2022-09-01T15:28:03;3.30;;;2.20;;